createdAt,value
2023-02-01T00:01:26.418Z,92.43
2023-02-01T00:03:54.696Z,92.55
2023-02-01T00:06:23.048Z,92.63
2023-02-01T00:08:54.354Z,92.60
2023-02-01T00:11:23.689Z,92.84
2023-02-01T00:13:52.255Z,92.70
2023-02-01T00:16:23.014Z,92.70
2023-02-01T00:18:53.269Z,92.58
2023-02-01T00:21:22.224Z,92.51
2023-02-01T00:23:51.274Z,92.47
2023-02-01T00:26:23.956Z,92.29
2023-02-01T00:28:52.022Z,92.31
2023-02-01T00:31:20.589Z,92.33
2023-02-01T00:33:49.605Z,92.29
2023-02-01T00:36:18.301Z,92.18
2023-02-01T00:38:46.349Z,92.19
2023-02-01T00:41:20.419Z,92.12
2023-02-01T00:43:49.439Z,92.09
2023-02-01T00:46:19.802Z,92.07
2023-02-01T00:48:48.480Z,92.13
2023-02-01T00:51:20.074Z,92.13
2023-02-01T00:53:48.558Z,92.13
2023-02-01T00:56:17.707Z,92.23
2023-02-01T00:58:46.241Z,92.21
2023-02-01T01:01:20.847Z,92.18
2023-02-01T01:03:54.892Z,92.23
2023-02-01T01:06:28.832Z,92.28
2023-02-01T01:09:00.492Z,92.17
2023-02-01T01:11:32.317Z,92.17
2023-02-01T01:14:01.432Z,92.09
2023-02-01T01:16:32.075Z,92.10
2023-02-01T01:19:01.631Z,92.08
2023-02-01T01:21:30.608Z,92.06
2023-02-01T01:23:58.833Z,91.92
2023-02-01T01:26:29.522Z,91.95
2023-02-01T01:28:59.911Z,91.86
2023-02-01T01:31:28.238Z,91.98
2023-02-01T01:33:57.891Z,92.04
2023-02-01T01:36:28.657Z,92.05
2023-02-01T01:38:57.189Z,92.28
2023-02-01T01:41:30.486Z,92.25
2023-02-01T01:44:04.405Z,92.38
2023-02-01T01:46:42.120Z,92.52
2023-02-01T01:49:15.322Z,92.56
2023-02-01T01:51:49.200Z,92.54
2023-02-01T01:54:27.087Z,92.45
2023-02-01T01:57:02.011Z,92.52
2023-02-01T01:59:33.525Z,92.56
2023-02-01T02:03:25.597Z,92.68
2023-02-01T02:05:58.751Z,92.74
2023-02-01T02:08:27.981Z,92.66
2023-02-01T02:11:02.853Z,92.64
2023-02-01T02:13:38.500Z,92.71
2023-02-01T02:16:13.644Z,92.78
2023-02-01T02:18:53.156Z,92.69
2023-02-01T02:21:24.280Z,92.72
2023-02-01T02:24:40.691Z,92.75
2023-02-01T02:27:36.265Z,92.74
2023-02-01T02:30:41.600Z,92.73
2023-02-01T02:33:28.471Z,92.81
2023-02-01T02:36:02.515Z,92.82
2023-02-01T02:38:48.467Z,92.76
2023-02-01T02:41:47.250Z,92.77
2023-02-01T02:44:44.201Z,92.75
2023-02-01T02:47:26.548Z,92.95
2023-02-01T02:50:46.627Z,92.88
2023-02-01T02:53:43.922Z,92.71
2023-02-01T02:56:32.423Z,92.69
2023-02-01T02:59:22.308Z,92.56
2023-02-01T03:02:09.715Z,92.62
2023-02-01T03:04:40.904Z,92.64
2023-02-01T03:07:36.905Z,92.66
2023-02-01T03:10:11.623Z,92.68
2023-02-01T03:12:59.288Z,92.81
2023-02-01T03:15:54.107Z,92.76
2023-02-01T03:19:11.463Z,92.74
2023-02-01T03:21:49.259Z,92.72
2023-02-01T03:24:47.474Z,92.64
2023-02-01T03:27:22.123Z,92.56
2023-02-01T03:30:03.633Z,92.52
2023-02-01T03:32:52.770Z,92.55
2023-02-01T03:35:31.839Z,92.36
2023-02-01T03:38:26.243Z,92.33
2023-02-01T03:41:04.861Z,92.30
2023-02-01T03:43:41.202Z,92.35
2023-02-01T03:46:18.682Z,92.22
2023-02-01T03:48:47.707Z,92.21
2023-02-01T03:51:17.146Z,92.19
2023-02-01T03:53:48.556Z,92.21
2023-02-01T03:56:22.425Z,92.08
2023-02-01T03:58:59.793Z,92.07
2023-02-01T04:01:31.972Z,91.97
2023-02-01T04:04:00.985Z,91.89
2023-02-01T04:06:29.300Z,91.84
2023-02-01T04:09:01.275Z,91.65
2023-02-01T04:11:30.200Z,91.47
2023-02-01T04:13:58.281Z,91.62
2023-02-01T04:16:26.943Z,91.45
2023-02-01T04:18:55.128Z,91.10
2023-02-01T04:21:23.135Z,91.16
2023-02-01T04:23:51.880Z,91.05
2023-02-01T04:26:20.718Z,90.97
2023-02-01T04:28:48.866Z,90.83
2023-02-01T04:31:18.362Z,90.67
2023-02-01T04:33:46.430Z,90.70
2023-02-01T04:36:14.484Z,90.50
2023-02-01T04:38:43.034Z,90.45
2023-02-01T04:41:11.044Z,90.41
2023-02-01T04:43:39.218Z,90.31
2023-02-01T04:46:07.633Z,90.22
2023-02-01T04:48:35.674Z,90.06
2023-02-01T04:51:03.863Z,90.04
2023-02-01T04:53:32.329Z,89.99
2023-02-01T04:56:00.433Z,89.87
2023-02-01T04:58:28.483Z,89.83
2023-02-01T05:00:57.222Z,89.91
2023-02-01T05:03:25.509Z,89.66
2023-02-01T05:05:54.748Z,89.49
2023-02-01T05:08:23.816Z,89.56
2023-02-01T05:10:51.840Z,89.53
2023-02-01T05:13:38.835Z,89.44
2023-02-01T05:16:07.520Z,89.47
2023-02-01T05:18:35.616Z,89.40
2023-02-01T05:21:03.866Z,89.38
2023-02-01T05:23:32.537Z,89.25
2023-02-01T05:26:01.697Z,89.38
2023-02-01T05:28:30.271Z,89.19
2023-02-01T05:30:58.725Z,89.21
2023-02-01T05:33:26.803Z,89.21
2023-02-01T05:35:54.903Z,89.15
2023-02-01T05:38:23.217Z,89.05
2023-02-01T05:40:51.343Z,89.09
2023-02-01T05:43:19.564Z,89.07
2023-02-01T05:45:48.373Z,88.98
2023-02-01T05:48:16.469Z,88.91
2023-02-01T05:50:45.105Z,88.99
2023-02-01T05:53:13.957Z,88.97
2023-02-01T05:55:43.186Z,88.79
2023-02-01T05:58:11.893Z,88.63
2023-02-01T06:00:40.687Z,88.52
2023-02-01T06:03:09.063Z,88.43
2023-02-01T06:05:38.217Z,88.31
2023-02-01T06:08:08.552Z,88.07
2023-02-01T06:10:36.599Z,88.17
2023-02-01T06:13:04.961Z,88.06
2023-02-01T06:15:33.773Z,87.99
2023-02-01T06:18:01.885Z,87.93
2023-02-01T06:20:30.101Z,87.92
2023-02-01T06:22:59.799Z,87.95
2023-02-01T06:25:28.012Z,87.86
2023-02-01T06:27:56.239Z,87.86
2023-02-01T06:30:24.915Z,87.82
2023-02-01T06:32:56.160Z,87.89
2023-02-01T06:35:24.955Z,87.77
2023-02-01T06:37:53.373Z,87.81
2023-02-01T06:40:21.755Z,87.81
2023-02-01T06:42:50.744Z,87.80
2023-02-01T06:45:19.566Z,87.73
2023-02-01T06:47:47.635Z,87.59
2023-02-01T06:50:16.199Z,87.63
2023-02-01T06:52:44.884Z,87.64
2023-02-01T06:55:14.052Z,87.56
2023-02-01T06:57:42.234Z,87.47
2023-02-01T07:00:11.206Z,87.29
2023-02-01T07:02:40.025Z,87.29
2023-02-01T07:05:08.670Z,87.31
2023-02-01T07:07:36.989Z,87.24
2023-02-01T07:10:05.423Z,87.15
2023-02-01T07:12:33.665Z,87.03
2023-02-01T07:15:03.449Z,87.17
2023-02-01T07:17:31.736Z,86.95
2023-02-01T07:20:00.967Z,86.93
2023-02-01T07:22:29.417Z,86.85
2023-02-01T07:24:57.590Z,86.98
2023-02-01T07:27:26.807Z,86.97
2023-02-01T07:29:56.656Z,87.00
2023-02-01T07:32:24.842Z,87.03
2023-02-01T07:34:52.989Z,86.93
2023-02-01T07:37:21.178Z,86.99
2023-02-01T07:39:49.357Z,86.92
2023-02-01T07:42:17.650Z,86.80
2023-02-01T07:44:45.893Z,86.67
2023-02-01T07:47:14.009Z,86.60
2023-02-01T07:49:42.291Z,86.59
2023-02-01T07:52:12.288Z,86.61
2023-02-01T07:54:40.476Z,86.56
2023-02-01T07:57:09.978Z,86.43
2023-02-01T07:59:58.451Z,86.51
2023-02-01T08:02:27.144Z,86.47
2023-02-01T08:04:56.549Z,86.51
2023-02-01T08:07:24.631Z,86.64
2023-02-01T08:09:52.810Z,86.53
2023-02-01T08:12:21.110Z,86.56
2023-02-01T08:14:49.160Z,86.50
2023-02-01T08:17:17.411Z,86.41
2023-02-01T08:19:45.753Z,86.38
2023-02-01T08:22:14.070Z,86.40
2023-02-01T08:24:42.869Z,86.43
2023-02-01T08:27:11.144Z,86.43
2023-02-01T08:29:39.163Z,86.27
2023-02-01T08:32:08.582Z,86.27
2023-02-01T08:34:36.922Z,86.16
2023-02-01T08:37:04.931Z,86.24
2023-02-01T08:39:33.126Z,86.09
2023-02-01T08:42:20.055Z,85.86
2023-02-01T08:44:48.609Z,86.04
2023-02-01T08:47:16.800Z,85.95
2023-02-01T08:49:44.893Z,85.97
2023-02-01T08:52:16.140Z,86.06
2023-02-01T08:54:44.942Z,86.10
2023-02-01T08:57:13.111Z,85.72
2023-02-01T08:59:41.245Z,85.41
2023-02-01T09:02:14.357Z,85.43
2023-02-01T09:04:43.040Z,85.51
2023-02-01T09:07:11.551Z,85.61
2023-02-01T09:09:39.984Z,85.75
2023-02-01T09:12:08.202Z,86.06
2023-02-01T09:14:36.627Z,86.37
2023-02-01T09:17:06.437Z,86.62
2023-02-01T09:19:34.714Z,86.87
2023-02-01T09:22:02.928Z,86.92
2023-02-01T09:24:31.267Z,86.91
2023-02-01T09:26:59.396Z,87.09
2023-02-01T09:29:27.853Z,87.10
2023-02-01T09:32:03.375Z,86.59
2023-02-01T09:34:33.114Z,86.77
2023-02-01T09:37:01.275Z,87.17
2023-02-01T09:39:31.126Z,87.58
2023-02-01T09:42:22.562Z,87.82
2023-02-01T09:44:50.602Z,88.03
2023-02-01T09:47:23.699Z,88.30
2023-02-01T09:49:59.603Z,88.52
2023-02-01T09:52:47.055Z,88.83
2023-02-01T09:55:24.921Z,88.78
2023-02-01T09:58:01.856Z,88.85
2023-02-01T10:00:35.206Z,88.77
2023-02-01T10:03:04.955Z,88.49
2023-02-01T10:05:57.751Z,88.47
2023-02-01T10:08:59.110Z,88.12
2023-02-01T10:11:51.824Z,87.90
2023-02-01T10:14:28.752Z,87.73
2023-02-01T10:17:24.315Z,87.56
2023-02-01T10:20:01.912Z,87.60
2023-02-01T10:23:19.099Z,87.80
2023-02-01T10:25:56.888Z,88.16
2023-02-01T10:28:27.045Z,88.47
2023-02-01T10:30:59.912Z,88.49
2023-02-01T10:33:35.733Z,88.82
2023-02-01T10:36:18.396Z,89.06
2023-02-01T10:38:47.375Z,89.14
2023-02-01T10:41:25.133Z,89.22
2023-02-01T10:43:58.587Z,89.41
2023-02-01T10:46:27.136Z,89.49
2023-02-01T10:48:57.694Z,89.46
2023-02-01T10:51:30.961Z,89.36
2023-02-01T10:54:09.721Z,89.26
2023-02-01T10:56:39.556Z,89.44
2023-02-01T10:59:17.337Z,89.42
2023-02-01T11:01:48.547Z,89.60
2023-02-01T11:04:21.796Z,89.86
2023-02-01T11:07:05.581Z,89.91
2023-02-01T11:09:36.227Z,89.99
2023-02-01T11:12:04.504Z,89.84
2023-02-01T11:14:40.285Z,89.54
2023-02-01T11:17:25.908Z,89.40
2023-02-01T11:20:03.870Z,89.45
2023-02-01T11:22:32.184Z,89.44
2023-02-01T11:25:08.544Z,89.37
2023-02-01T11:27:43.034Z,89.39
2023-02-01T11:30:21.604Z,89.01
2023-02-01T11:32:51.773Z,88.92
2023-02-01T11:35:22.318Z,88.57
2023-02-01T11:38:01.812Z,88.43
2023-02-01T11:40:36.784Z,87.99
2023-02-01T11:43:25.395Z,87.77
2023-02-01T11:45:58.070Z,86.93
2023-02-01T11:48:28.600Z,86.65
2023-02-01T11:51:24.408Z,86.78
2023-02-01T11:54:17.711Z,87.22
2023-02-01T11:57:33.698Z,86.67
2023-02-01T12:00:31.799Z,86.30
2023-02-01T12:03:19.667Z,86.26
2023-02-01T12:06:07.432Z,86.21
2023-02-01T12:08:38.154Z,86.49
2023-02-01T12:11:25.950Z,86.61
2023-02-01T12:14:03.354Z,86.58
2023-02-01T12:16:40.314Z,86.96
2023-02-01T12:19:41.965Z,87.00
2023-02-01T12:22:20.969Z,87.15
2023-02-01T12:25:24.737Z,87.44
2023-02-01T12:28:24.378Z,87.67
2023-02-01T12:31:11.137Z,87.85
2023-02-01T12:33:48.475Z,87.72
2023-02-01T12:36:44.571Z,88.00
2023-02-01T12:39:33.990Z,87.61
2023-02-01T12:42:14.670Z,87.83
2023-02-01T12:44:58.204Z,87.97
2023-02-01T12:47:34.127Z,87.82
2023-02-01T12:50:22.922Z,88.04
2023-02-01T12:52:53.680Z,88.26
2023-02-01T12:55:25.555Z,88.32
2023-02-01T12:58:02.315Z,88.34
2023-02-01T13:00:41.588Z,88.45
2023-02-01T13:03:38.093Z,88.40
2023-02-01T13:06:15.767Z,88.32
2023-02-01T13:08:46.529Z,88.39
2023-02-01T13:11:23.603Z,87.96
2023-02-01T13:14:21.030Z,87.78
2023-02-01T13:17:14.067Z,87.93
2023-02-01T13:19:52.953Z,87.32
2023-02-01T13:22:32.071Z,86.90
2023-02-01T13:25:04.333Z,86.85
2023-02-01T13:27:34.153Z,86.80
2023-02-01T13:30:12.670Z,86.74
2023-02-01T13:33:53.601Z,86.52
2023-02-01T13:35:58.903Z,86.34
2023-02-01T13:38:30.103Z,86.44
2023-02-01T13:41:08.567Z,86.33
2023-02-01T13:43:40.014Z,86.32
2023-02-01T13:46:14.453Z,86.33
2023-02-01T13:48:57.553Z,86.28
2023-02-01T13:51:44.650Z,86.15
2023-02-01T13:54:28.687Z,86.18
2023-02-01T13:57:00.129Z,86.31
2023-02-01T13:59:40.517Z,86.46
2023-02-01T14:02:39.658Z,86.43
2023-02-01T14:05:31.073Z,86.54
2023-02-01T14:08:23.971Z,86.69
2023-02-01T14:10:55.406Z,86.93
2023-02-01T14:13:39.912Z,87.09
2023-02-01T14:16:17.378Z,87.05
2023-02-01T14:18:47.417Z,87.29
2023-02-01T14:21:38.523Z,87.36
2023-02-01T14:24:09.467Z,87.56
2023-02-01T14:26:49.365Z,87.64
2023-02-01T14:29:21.738Z,87.71
2023-02-01T14:32:17.932Z,87.82
2023-02-01T14:34:48.940Z,87.92
2023-02-01T14:37:21.827Z,88.01
2023-02-01T14:40:02.400Z,88.28
2023-02-01T14:42:42.544Z,88.29
2023-02-01T14:45:20.446Z,88.49
2023-02-01T14:48:07.089Z,88.40
2023-02-01T14:50:43.824Z,88.62
2023-02-01T14:53:20.222Z,88.69
2023-02-01T14:56:14.357Z,88.71
2023-02-01T14:58:49.913Z,88.93
2023-02-01T15:01:33.197Z,88.97
2023-02-01T15:04:01.578Z,89.08
2023-02-01T15:06:42.137Z,89.04
2023-02-01T15:09:12.167Z,89.20
2023-02-01T15:11:58.956Z,89.20
2023-02-01T15:14:29.748Z,89.43
2023-02-01T15:16:58.056Z,89.64
2023-02-01T15:19:29.047Z,89.73
2023-02-01T15:21:59.239Z,89.87
2023-02-01T15:24:30.322Z,90.03
2023-02-01T15:27:04.788Z,90.01
2023-02-01T15:29:36.560Z,90.15
2023-02-01T15:32:05.994Z,90.13
2023-02-01T15:34:48.898Z,90.25
2023-02-01T15:37:19.591Z,90.28
2023-02-01T15:40:12.832Z,90.19
2023-02-01T15:42:53.778Z,90.28
2023-02-01T15:45:26.529Z,90.29
2023-02-01T15:47:57.441Z,90.30
2023-02-01T15:50:27.042Z,90.43
2023-02-01T15:52:58.912Z,90.58
2023-02-01T15:55:26.918Z,90.55
2023-02-01T15:57:54.928Z,90.55
2023-02-01T16:00:28.866Z,90.61
2023-02-01T16:02:59.391Z,90.76
2023-02-01T16:05:39.397Z,90.72
2023-02-01T16:08:21.399Z,90.66
2023-02-01T16:10:52.894Z,90.69
2023-02-01T16:13:21.966Z,90.66
2023-02-01T16:15:50.546Z,90.45
2023-02-01T16:18:19.253Z,90.40
2023-02-01T16:20:48.942Z,90.51
2023-02-01T16:23:17.046Z,90.48
2023-02-01T16:25:45.496Z,90.54
2023-02-01T16:28:13.577Z,90.52
2023-02-01T16:30:41.939Z,90.62
2023-02-01T16:33:18.971Z,90.57
2023-02-01T16:35:48.224Z,90.55
2023-02-01T16:38:20.043Z,90.50
2023-02-01T16:40:49.701Z,90.55
2023-02-01T16:43:20.537Z,90.60
2023-02-01T16:45:50.978Z,90.50
2023-02-01T16:48:28.864Z,90.38
2023-02-01T16:51:04.002Z,90.30
2023-02-01T16:53:36.524Z,90.42
2023-02-01T16:56:19.285Z,90.35
2023-02-01T16:58:48.394Z,90.47
2023-02-01T17:01:19.557Z,90.49
2023-02-01T17:03:47.963Z,90.54
2023-02-01T17:06:18.713Z,90.54
2023-02-01T17:08:51.485Z,90.72
2023-02-01T17:11:20.012Z,90.78
2023-02-01T17:13:48.170Z,90.77
2023-02-01T17:16:19.090Z,90.76
2023-02-01T17:19:03.309Z,90.87
2023-02-01T17:21:43.818Z,90.78
2023-02-01T17:24:17.643Z,90.72
2023-02-01T17:26:46.251Z,90.84
2023-02-01T17:29:14.555Z,90.79
2023-02-01T17:31:46.711Z,90.84
2023-02-01T17:34:16.046Z,90.81
2023-02-01T17:36:45.942Z,90.88
2023-02-01T17:39:36.484Z,90.89
2023-02-01T17:42:06.088Z,90.93
2023-02-01T17:44:34.165Z,90.94
2023-02-01T17:47:02.340Z,90.88
2023-02-01T17:49:30.617Z,90.83
2023-02-01T17:51:58.807Z,90.86
2023-02-01T17:54:26.989Z,90.84
2023-02-01T17:56:55.349Z,90.83
2023-02-01T17:59:23.389Z,90.88
2023-02-01T18:01:52.101Z,90.83
2023-02-01T18:04:21.742Z,90.70
2023-02-01T18:06:49.796Z,90.74
2023-02-01T18:09:17.928Z,90.71
2023-02-01T18:11:46.801Z,90.77
2023-02-01T18:14:14.885Z,90.66
2023-02-01T18:16:43.122Z,90.66
2023-02-01T18:19:11.448Z,90.75
2023-02-01T18:21:44.759Z,90.93
2023-02-01T18:24:14.881Z,90.88
2023-02-01T18:26:43.418Z,91.02
2023-02-01T18:29:11.634Z,90.99
2023-02-01T18:31:52.490Z,91.10
2023-02-01T18:34:25.425Z,91.03
2023-02-01T18:36:54.016Z,91.17
2023-02-01T18:39:21.989Z,91.08
2023-02-01T18:41:51.938Z,91.02
2023-02-01T18:44:20.352Z,91.15
2023-02-01T18:46:48.497Z,91.26
2023-02-01T18:49:18.919Z,91.22
2023-02-01T18:51:47.134Z,91.35
2023-02-01T18:54:15.142Z,91.36
2023-02-01T18:56:43.887Z,91.41
2023-02-01T18:59:12.140Z,91.32
2023-02-01T19:01:40.414Z,91.41
2023-02-01T19:04:13.759Z,91.34
2023-02-01T19:06:47.076Z,91.41
2023-02-01T19:09:15.210Z,91.39
2023-02-01T19:11:43.317Z,91.41
2023-02-01T19:14:11.651Z,91.46
2023-02-01T19:16:40.115Z,91.51
2023-02-01T19:19:08.980Z,91.32
2023-02-01T19:21:37.651Z,91.05
2023-02-01T19:24:06.225Z,91.05
2023-02-01T19:26:34.397Z,91.08
2023-02-01T19:29:02.735Z,91.05
2023-02-01T19:31:31.500Z,91.06
2023-02-01T19:33:59.648Z,90.99
2023-02-01T19:36:28.523Z,91.00
2023-02-01T19:38:56.869Z,90.99
2023-02-01T19:41:24.981Z,90.99
2023-02-01T19:43:53.270Z,90.87
2023-02-01T19:46:21.532Z,90.64
2023-02-01T19:48:49.641Z,90.70
2023-02-01T19:51:18.024Z,90.88
2023-02-01T19:53:46.320Z,90.83
2023-02-01T19:56:14.493Z,90.84
2023-02-01T19:58:42.871Z,90.89
2023-02-01T20:01:10.282Z,90.82
2023-02-01T20:03:38.756Z,90.69
2023-02-01T20:06:07.472Z,90.82
2023-02-01T20:08:35.971Z,90.78
2023-02-01T20:11:06.392Z,90.76
2023-02-01T20:13:35.834Z,90.69
2023-02-01T20:16:04.147Z,90.66
2023-02-01T20:18:32.219Z,90.67
2023-02-01T20:21:00.343Z,90.66
2023-02-01T20:23:28.552Z,90.62
2023-02-01T20:26:10.072Z,90.69
2023-02-01T20:28:38.830Z,90.62
2023-02-01T20:31:28.802Z,90.56
2023-02-01T20:33:58.934Z,90.54
2023-02-01T20:36:28.500Z,90.46
2023-02-01T20:38:57.703Z,90.55
2023-02-01T20:41:26.762Z,90.57
2023-02-01T20:43:55.330Z,90.52
2023-02-01T20:46:23.924Z,90.63
2023-02-01T20:48:52.443Z,90.59
2023-02-01T20:51:21.537Z,90.64
2023-02-01T20:53:53.701Z,90.63
2023-02-01T20:56:23.085Z,90.64
2023-02-01T20:58:51.121Z,90.72
2023-02-01T21:01:19.213Z,90.68
2023-02-01T21:03:47.854Z,90.73
2023-02-01T21:06:15.976Z,90.73
2023-02-01T21:08:44.020Z,90.66
2023-02-01T21:11:14.245Z,90.64
2023-02-01T21:13:50.562Z,90.70
2023-02-01T21:16:21.902Z,90.73
2023-02-01T21:18:51.114Z,90.79
2023-02-01T21:21:20.420Z,90.81
2023-02-01T21:23:53.180Z,90.89
2023-02-01T21:26:22.927Z,90.93
2023-02-01T21:28:52.974Z,91.00
2023-02-01T21:31:22.576Z,90.98
2023-02-01T21:33:51.643Z,90.91
2023-02-01T21:36:19.985Z,91.01
2023-02-01T21:38:52.420Z,91.12
2023-02-01T21:41:43.900Z,91.22
2023-02-01T21:44:14.826Z,91.07
2023-02-01T21:46:44.391Z,91.14
2023-02-01T21:49:13.458Z,91.18
2023-02-01T21:51:42.736Z,91.19
2023-02-01T21:54:12.220Z,91.13
2023-02-01T21:56:41.240Z,91.15
2023-02-01T21:59:13.361Z,91.02
2023-02-01T22:01:42.236Z,91.13
2023-02-01T22:04:11.104Z,91.16
2023-02-01T22:06:47.254Z,91.04
2023-02-01T22:09:22.198Z,91.18
2023-02-01T22:11:51.885Z,91.23
2023-02-01T22:14:21.015Z,91.18
2023-02-01T22:16:49.551Z,91.30
2023-02-01T22:19:18.850Z,91.37
2023-02-01T22:21:48.271Z,91.33
2023-02-01T22:24:18.243Z,91.33
2023-02-01T22:26:46.543Z,91.27
2023-02-01T22:29:15.170Z,91.30
2023-02-01T22:31:43.615Z,91.37
2023-02-01T22:34:12.707Z,91.37
2023-02-01T22:36:41.323Z,91.44
2023-02-01T22:39:09.878Z,91.28
2023-02-01T22:41:38.053Z,91.41
2023-02-01T22:44:06.968Z,91.49
2023-02-01T22:46:35.104Z,91.46
2023-02-01T22:49:05.230Z,91.36
2023-02-01T22:51:33.962Z,91.38
2023-02-01T22:54:02.238Z,91.27
2023-02-01T22:56:36.802Z,91.34
2023-02-01T22:59:09.989Z,91.34
2023-02-01T23:01:38.191Z,91.45
2023-02-01T23:04:10.102Z,91.48
2023-02-01T23:06:38.910Z,91.57
2023-02-01T23:09:14.421Z,91.74
2023-02-01T23:11:43.108Z,91.68
2023-02-01T23:14:12.805Z,91.66
2023-02-01T23:16:41.606Z,91.80
2023-02-01T23:19:09.728Z,91.85
2023-02-01T23:21:37.907Z,91.86
2023-02-01T23:24:08.348Z,91.79
2023-02-01T23:26:36.911Z,91.91
2023-02-01T23:29:05.526Z,91.88
2023-02-01T23:31:35.484Z,91.85
2023-02-01T23:34:05.044Z,91.91
2023-02-01T23:36:34.248Z,91.81
2023-02-01T23:39:02.652Z,91.89
2023-02-01T23:41:31.823Z,91.86
2023-02-01T23:44:00.588Z,91.92
2023-02-01T23:46:28.625Z,91.88
2023-02-01T23:48:57.072Z,91.96
2023-02-01T23:51:26.162Z,91.84
2023-02-01T23:53:55.560Z,91.90
2023-02-01T23:56:26.351Z,92.08
2023-02-01T23:58:56.978Z,92.05
